Durham, NC (27705)

10:31 PM EDT on April 27, 2015 (GMT -0400)
510sRus@ Pinedale Dr | | Change Station
CLOSE
Current Station
Personal Weather Station
Location: Durham, NC
Elevation: 531 ft
Nearby Weather Stations

Elev 531 ft 36.03 °N, 78.98 °W | Updated 1 second ago

Clear
Clear
50.5 °F
Feels Like 50.5 °F
N
0.0
Wind Variable Wind from NNW
Gusts 0.0 mph

Today
High -- | Low -- °F
--% Chance of Precip.
Yesterday
High -- | Low -- °F
Precip. -- in
6:28 AM 7:59 PM
Waxing Gibbous, 70% visible
Pressure 29.91 in
Visibility 10.0 miles
Clouds Clear
Dew Point 38 °F
Humidity 61%
Rainfall 0.00 in
Snow Depth Not available.
UV 0 out of 12
Pollen 9.60 out of 12
Air Quality Not available.
Flu Activity Sporadic
METAR KIGX 280156Z AUTO 30003KT 10SM CLR 12/M01 A2992 RMK AO2 SLP128 T01171011 TSNO

More Conditions Fewer Conditions

Pressure 29.91 in
Visibility 10.0 miles
Clouds Clear
Dew Point 38 °F
Humidity 61%
Rainfall 0.00 in
Snow Depth Not available.
UV 0 out of 12
Pollen 9.60 out of 12
Air Quality Not available.
Flu Activity Sporadic
METAR KIGX 280156Z AUTO 30003KT 10SM CLR 12/M01 A2992 RMK AO2 SLP128 T01171011 TSNO

More Conditions Fewer Conditions

10-Day Weather Forecast

Almanac

Astronomy

Apr. 27, 2015 Rise Set
Actual Time
Civil Twilight
Nautical Twilight
Astronomical Twilight
Moon
Length of Visible Light
Length of Day
Tomorrow will be .
, % of the Moon is Illuminated

Today's Extremes

State Highs State Lows

Community

WunderPhotos

Upload Photos

1,817,522 photos uploaded!

WunderBlogs® & News

Nearby

Air Quality

  Air Quality AQ Index Pollutant
Not available.

Snow Depth

Station Depth Elevation

Earthquake Activity

City Distance Mag. Time & Date
Minimum magnitude displayed is 2.5.

Coastal Water Temperatures

Place Temperature

Stations

Nearby Weather Stations

Station Location Temp. Windchill Dew Point Humidity Wind Precip. Elev Updated Type